createdAt,value
2022-11-26T00:02:18.962Z,8.80
2022-11-26T00:05:07.756Z,12.07
2022-11-26T00:07:57.651Z,12.00
2022-11-26T00:10:45.597Z,14.20
2022-11-26T00:13:34.780Z,10.18
2022-11-26T00:16:22.809Z,9.52
2022-11-26T00:19:10.914Z,9.68
2022-11-26T00:21:58.866Z,7.03
2022-11-26T00:24:46.586Z,22.85
2022-11-26T00:27:34.741Z,17.00
2022-11-26T00:30:26.264Z,19.55
2022-11-26T00:33:14.334Z,16.00
2022-11-26T00:36:05.447Z,16.05
2022-11-26T00:38:56.226Z,17.13
2022-11-26T00:41:46.894Z,16.15
2022-11-26T00:44:34.726Z,18.17
2022-11-26T00:47:23.946Z,14.30
2022-11-26T00:50:16.530Z,14.10
2022-11-26T00:53:05.460Z,16.20
2022-11-26T00:55:53.639Z,14.95
2022-11-26T00:58:41.375Z,12.23
2022-11-26T01:01:29.722Z,13.32
2022-11-26T01:04:18.662Z,15.13
2022-11-26T01:07:06.663Z,10.65
2022-11-26T01:09:54.567Z,12.95
2022-11-26T01:12:42.418Z,12.93
2022-11-26T01:15:30.459Z,13.57
2022-11-26T01:18:20.754Z,11.45
2022-11-26T01:21:11.319Z,12.98
2022-11-26T01:23:59.201Z,10.77
2022-11-26T01:26:46.819Z,10.65
2022-11-26T01:29:34.838Z,12.85
2022-11-26T01:32:28.022Z,12.05
2022-11-26T01:35:18.021Z,9.50
2022-11-26T01:38:07.665Z,13.43
2022-11-26T01:41:08.971Z,10.50
2022-11-26T01:43:59.480Z,10.50
2022-11-26T01:46:47.481Z,11.40
2022-11-26T01:49:36.924Z,10.93
2022-11-26T01:52:27.555Z,8.88
2022-11-26T01:55:18.762Z,10.32
2022-11-26T01:58:10.359Z,12.18
2022-11-26T02:00:59.003Z,12.32
2022-11-26T02:03:55.746Z,8.38
2022-11-26T02:06:45.938Z,12.02
2022-11-26T02:09:33.930Z,10.10
2022-11-26T02:12:23.485Z,10.65
2022-11-26T02:15:15.480Z,9.77
2022-11-26T02:18:08.380Z,9.95
2022-11-26T02:21:04.271Z,8.02
2022-11-26T02:24:32.767Z,8.90
2022-11-26T02:27:54.163Z,7.53
2022-11-26T02:30:51.293Z,10.70
2022-11-26T02:33:53.239Z,10.20
2022-11-26T02:37:08.253Z,6.90
2022-11-26T02:39:59.961Z,7.80
2022-11-26T02:42:50.025Z,10.20
2022-11-26T02:45:45.275Z,11.02
2022-11-26T02:48:40.333Z,9.75
2022-11-26T02:51:53.539Z,6.65
2022-11-26T02:54:51.645Z,8.10
2022-11-26T02:58:02.086Z,8.02
2022-11-26T03:00:54.673Z,8.05
2022-11-26T03:07:37.814Z,6.10
2022-11-26T03:10:35.716Z,9.95
2022-11-26T03:13:23.635Z,8.75
2022-11-26T03:16:17.385Z,10.95
2022-11-26T03:19:34.350Z,10.98
2022-11-26T03:25:30.511Z,7.97
2022-11-26T03:28:24.749Z,9.77
2022-11-26T03:31:28.664Z,8.32
2022-11-26T03:34:30.166Z,7.50
2022-11-26T03:40:26.091Z,6.93
2022-11-26T03:43:15.211Z,9.32
2022-11-26T03:46:07.320Z,9.40
2022-11-26T03:49:00.173Z,8.00
2022-11-26T03:51:56.080Z,11.35
2022-11-26T03:55:07.762Z,8.27
2022-11-26T03:58:00.232Z,10.15
2022-11-26T04:00:54.963Z,11.35
2022-11-26T04:03:45.611Z,8.48
2022-11-26T04:06:44.562Z,10.73
2022-11-26T04:09:40.021Z,14.27
2022-11-26T04:12:27.906Z,12.32
2022-11-26T04:15:22.153Z,14.48
2022-11-26T04:18:09.811Z,9.45
2022-11-26T04:20:57.826Z,10.40
2022-11-26T04:23:45.759Z,11.13
2022-11-26T04:26:39.526Z,10.23
2022-11-26T04:29:31.332Z,8.55
2022-11-26T04:32:26.900Z,11.45
2022-11-26T04:35:23.302Z,10.38
2022-11-26T04:38:11.924Z,9.63
2022-11-26T04:41:18.845Z,9.82
2022-11-26T04:44:14.623Z,11.65
2022-11-26T04:47:06.322Z,13.75
2022-11-26T04:49:56.114Z,10.55
2022-11-26T04:52:59.482Z,9.05
2022-11-26T04:55:53.911Z,10.20
2022-11-26T04:58:46.337Z,11.35
2022-11-26T05:01:51.608Z,10.18
2022-11-26T05:04:42.222Z,10.90
2022-11-26T05:07:31.904Z,9.52
2022-11-26T05:10:21.619Z,13.10
2022-11-26T05:16:45.992Z,9.57
2022-11-26T05:19:36.390Z,10.25
2022-11-26T05:22:24.429Z,14.55
2022-11-26T05:25:12.745Z,8.45
2022-11-26T05:28:08.493Z,12.32
2022-11-26T05:31:09.095Z,8.48
2022-11-26T05:33:56.680Z,12.15
2022-11-26T05:36:48.872Z,14.90
2022-11-26T05:39:52.945Z,11.27
2022-11-26T05:42:41.598Z,11.20
2022-11-26T05:45:30.935Z,13.88
2022-11-26T05:48:20.255Z,10.52
2022-11-26T05:51:10.324Z,15.57
2022-11-26T05:53:59.357Z,7.90
2022-11-26T05:56:59.776Z,10.75
2022-11-26T05:59:58.318Z,10.18
2022-11-26T06:02:47.559Z,10.43
2022-11-26T06:05:35.338Z,12.52
2022-11-26T06:08:23.313Z,10.63
2022-11-26T06:11:15.353Z,8.68
2022-11-26T06:14:05.728Z,12.63
2022-11-26T06:20:27.157Z,11.50
2022-11-26T06:23:15.326Z,10.88
2022-11-26T06:26:09.038Z,10.02
2022-11-26T06:28:58.194Z,10.80
2022-11-26T06:35:08.137Z,12.93
2022-11-26T06:37:55.943Z,9.13
2022-11-26T06:40:43.866Z,8.52
2022-11-26T06:43:32.878Z,12.57
2022-11-26T06:46:23.431Z,10.55
2022-11-26T06:49:13.294Z,13.27
2022-11-26T06:52:30.246Z,9.48
2022-11-26T06:55:35.082Z,13.98
2022-11-26T06:58:40.369Z,10.73
2022-11-26T07:01:34.183Z,10.82
2022-11-26T07:04:22.135Z,7.32
2022-11-26T07:07:10.308Z,7.18
2022-11-26T07:09:58.218Z,8.10
2022-11-26T07:12:48.247Z,8.88
2022-11-26T07:15:38.684Z,5.72
2022-11-26T07:18:39.975Z,7.30
2022-11-26T07:21:29.388Z,8.35
2022-11-26T07:24:22.631Z,6.75
2022-11-26T07:29:58.204Z,6.93
2022-11-26T07:32:46.217Z,6.45
2022-11-26T07:35:45.757Z,8.10
2022-11-26T07:38:37.856Z,9.02
2022-11-26T07:41:41.860Z,7.90
2022-11-26T07:44:35.218Z,8.32
2022-11-26T07:47:31.738Z,6.72
2022-11-26T07:50:21.305Z,7.22
2022-11-26T07:53:13.261Z,6.65
2022-11-26T07:56:01.040Z,6.53
2022-11-26T07:58:49.201Z,5.60
2022-11-26T08:01:38.698Z,5.90
2022-11-26T08:04:29.365Z,6.57
2022-11-26T08:07:23.348Z,6.55
2022-11-26T08:10:17.067Z,7.47
2022-11-26T08:13:05.034Z,5.60
2022-11-26T08:15:52.803Z,8.25
2022-11-26T08:18:44.222Z,13.43
2022-11-26T08:21:31.959Z,7.90
2022-11-26T08:24:22.698Z,5.38
2022-11-26T08:27:14.284Z,6.53
2022-11-26T08:30:05.182Z,7.43
2022-11-26T08:32:52.784Z,5.53
2022-11-26T08:36:05.589Z,8.82
2022-11-26T08:38:48.373Z,17.33
2022-11-26T08:41:36.291Z,7.70
2022-11-26T08:44:27.817Z,16.85
2022-11-26T08:47:15.862Z,11.70
2022-11-26T08:50:04.096Z,6.13
2022-11-26T08:53:01.910Z,6.13
2022-11-26T08:56:00.192Z,9.52
2022-11-26T08:58:49.315Z,7.22
2022-11-26T09:01:38.748Z,8.75
2022-11-26T09:04:28.053Z,9.35
2022-11-26T09:07:19.911Z,5.70
2022-11-26T09:10:09.145Z,7.18
2022-11-26T09:12:56.872Z,8.02
2022-11-26T09:15:44.589Z,12.40
2022-11-26T09:18:34.268Z,9.30
2022-11-26T09:21:22.726Z,10.40
2022-11-26T09:24:10.912Z,11.63
2022-11-26T09:27:02.781Z,11.18
2022-11-26T09:29:54.162Z,16.45
2022-11-26T09:32:44.200Z,11.90
2022-11-26T09:35:34.797Z,15.27
2022-11-26T09:38:23.564Z,13.40
2022-11-26T09:41:27.797Z,13.27
2022-11-26T09:44:42.808Z,11.90
2022-11-26T09:47:38.262Z,15.90
2022-11-26T09:50:31.757Z,9.75
2022-11-26T09:53:25.507Z,10.75
2022-11-26T09:56:25.517Z,12.48
2022-11-26T09:59:18.584Z,16.48
2022-11-26T10:02:13.244Z,14.68
2022-11-26T10:05:01.549Z,15.32
2022-11-26T10:07:59.592Z,15.07
2022-11-26T10:10:57.819Z,9.68
2022-11-26T10:14:01.942Z,14.10
2022-11-26T10:17:03.147Z,12.48
2022-11-26T10:20:04.922Z,17.42
2022-11-26T10:22:59.520Z,15.82
2022-11-26T10:25:55.823Z,15.40
2022-11-26T10:28:47.244Z,19.00
2022-11-26T10:31:41.952Z,17.27
2022-11-26T10:34:39.313Z,13.43
2022-11-26T10:37:30.660Z,14.85
2022-11-26T10:40:24.508Z,22.88
2022-11-26T10:43:19.988Z,15.55
2022-11-26T10:46:08.016Z,14.20
2022-11-26T10:48:55.913Z,14.23
2022-11-26T10:51:49.195Z,13.93
2022-11-26T10:57:34.803Z,12.45
2022-11-26T11:00:35.037Z,12.60
2022-11-26T11:03:59.776Z,12.38
2022-11-26T11:06:42.586Z,16.63
2022-11-26T11:09:33.626Z,12.30
2022-11-26T11:12:23.759Z,11.35
2022-11-26T11:15:25.150Z,12.23
2022-11-26T11:18:33.577Z,14.80
2022-11-26T11:21:22.679Z,12.27
2022-11-26T11:24:16.606Z,10.73
2022-11-26T11:27:04.362Z,18.23
2022-11-26T11:29:52.937Z,14.90
2022-11-26T11:32:44.509Z,11.93
2022-11-26T11:35:35.667Z,15.65
2022-11-26T11:38:27.923Z,19.80
2022-11-26T11:41:26.114Z,14.02
2022-11-26T11:44:18.614Z,18.80
2022-11-26T11:47:37.302Z,20.60
2022-11-26T11:50:32.649Z,15.82
2022-11-26T11:53:35.383Z,16.75
2022-11-26T11:56:29.768Z,19.58
2022-11-26T11:59:59.707Z,13.90
2022-11-26T12:03:09.314Z,14.00
2022-11-26T12:06:13.793Z,15.43
2022-11-26T12:09:17.483Z,17.20
2022-11-26T12:12:13.677Z,12.30
2022-11-26T12:15:09.220Z,17.52
2022-11-26T12:18:02.588Z,13.90
2022-11-26T12:20:55.232Z,14.82
2022-11-26T12:23:50.728Z,15.38
2022-11-26T12:26:48.374Z,12.82
2022-11-26T12:29:42.927Z,12.98
2022-11-26T12:32:40.085Z,17.38
2022-11-26T12:35:35.203Z,14.07
2022-11-26T12:38:31.168Z,15.90
2022-11-26T12:41:25.565Z,13.43
2022-11-26T12:44:37.289Z,15.52
2022-11-26T12:47:32.871Z,16.00
2022-11-26T12:50:35.272Z,15.18
2022-11-26T12:53:35.174Z,14.40
2022-11-26T12:56:31.573Z,16.50
2022-11-26T12:59:27.555Z,13.93
2022-11-26T13:02:21.575Z,17.17
2022-11-26T13:05:16.232Z,18.55
2022-11-26T13:08:26.058Z,15.63
2022-11-26T13:11:27.487Z,14.05
2022-11-26T13:14:26.448Z,17.83
2022-11-26T13:17:21.499Z,13.85
2022-11-26T13:20:24.386Z,11.57
2022-11-26T13:23:26.288Z,16.52
2022-11-26T13:26:45.456Z,14.05
2022-11-26T13:29:59.534Z,14.52
2022-11-26T13:33:20.151Z,13.65
2022-11-26T13:36:37.681Z,14.77
2022-11-26T13:39:51.202Z,12.45
2022-11-26T13:46:10.459Z,17.88
2022-11-26T13:49:02.899Z,13.52
2022-11-26T13:51:56.982Z,17.42
2022-11-26T13:54:50.985Z,14.20
2022-11-26T13:57:44.317Z,16.38
2022-11-26T14:00:34.472Z,12.23
2022-11-26T14:03:45.972Z,12.10
2022-11-26T14:06:33.805Z,18.55
2022-11-26T14:09:49.808Z,14.02
2022-11-26T14:13:12.626Z,15.63
2022-11-26T14:16:04.852Z,18.70
2022-11-26T14:19:00.508Z,13.57
2022-11-26T14:22:06.213Z,14.23
2022-11-26T14:25:00.034Z,13.25
2022-11-26T14:27:55.603Z,13.95
2022-11-26T14:30:45.847Z,11.15
2022-11-26T14:33:36.096Z,10.82
2022-11-26T14:36:27.723Z,11.35
2022-11-26T14:39:17.067Z,13.30
2022-11-26T14:42:06.607Z,13.48
2022-11-26T14:45:05.651Z,14.23
2022-11-26T14:47:55.984Z,12.57
2022-11-26T14:50:45.417Z,10.82
2022-11-26T14:53:35.879Z,11.98
2022-11-26T14:56:26.303Z,13.80
2022-11-26T14:59:18.784Z,14.30
2022-11-26T15:02:22.778Z,11.90
2022-11-26T15:05:17.265Z,11.85
2022-11-26T15:08:07.164Z,12.23
2022-11-26T15:11:18.700Z,11.85
2022-11-26T15:14:23.987Z,13.00
2022-11-26T15:17:16.752Z,10.32
2022-11-26T15:20:12.347Z,9.10
2022-11-26T15:23:03.634Z,12.45
2022-11-26T15:25:55.853Z,10.73
2022-11-26T15:28:45.583Z,12.27
2022-11-26T15:31:43.517Z,11.70
2022-11-26T15:34:33.256Z,10.25
2022-11-26T15:37:21.680Z,11.45
2022-11-26T15:40:20.088Z,11.18
2022-11-26T15:43:18.427Z,8.60
2022-11-26T15:46:16.213Z,11.18
2022-11-26T15:49:07.500Z,10.13
2022-11-26T15:52:00.861Z,13.18
2022-11-26T15:55:11.956Z,11.90
2022-11-26T15:58:03.843Z,12.80
2022-11-26T16:00:55.577Z,12.32
2022-11-26T16:03:47.051Z,14.95
2022-11-26T16:06:37.108Z,10.18
2022-11-26T16:09:28.127Z,15.30
2022-11-26T16:12:31.492Z,11.15
2022-11-26T16:15:35.307Z,12.02
2022-11-26T16:18:26.574Z,10.25
2022-11-26T16:21:22.220Z,12.93
2022-11-26T16:24:27.095Z,13.68
2022-11-26T16:27:29.849Z,10.68
2022-11-26T16:30:21.210Z,11.40
2022-11-26T16:33:09.454Z,11.63
2022-11-26T16:36:00.328Z,10.50
2022-11-26T16:39:11.866Z,9.60
2022-11-26T16:41:59.834Z,11.70
2022-11-26T16:44:48.116Z,9.73
2022-11-26T16:47:39.431Z,8.55
2022-11-26T16:50:28.634Z,12.65
2022-11-26T16:53:16.310Z,9.88
2022-11-26T16:56:06.463Z,10.57
2022-11-26T16:58:55.013Z,10.40
2022-11-26T17:01:45.639Z,10.65
2022-11-26T17:04:33.554Z,8.30
2022-11-26T17:07:24.481Z,10.05
2022-11-26T17:13:57.561Z,10.38
2022-11-26T17:16:45.274Z,9.80
2022-11-26T17:19:33.493Z,11.68
2022-11-26T17:22:21.433Z,9.73
2022-11-26T17:25:10.566Z,9.85
2022-11-26T17:27:58.597Z,9.82
2022-11-26T17:30:48.015Z,10.13
2022-11-26T17:33:36.253Z,11.93
2022-11-26T17:36:24.754Z,13.30
2022-11-26T17:39:13.057Z,9.88
2022-11-26T17:42:00.857Z,10.35
2022-11-26T17:44:49.230Z,11.27
2022-11-26T17:47:38.778Z,10.40
2022-11-26T17:50:28.649Z,10.48
2022-11-26T17:53:16.653Z,8.85
2022-11-26T17:56:04.603Z,12.90
2022-11-26T17:59:04.540Z,11.63
2022-11-26T18:01:52.569Z,9.30
2022-11-26T18:04:41.803Z,12.05
2022-11-26T18:07:29.550Z,12.80
2022-11-26T18:10:22.391Z,13.55
2022-11-26T18:13:10.788Z,10.77
2022-11-26T18:16:02.335Z,12.43
2022-11-26T18:18:50.637Z,12.38
2022-11-26T18:21:40.396Z,15.27
2022-11-26T18:24:28.201Z,11.60
2022-11-26T18:27:23.604Z,14.40
2022-11-26T18:30:12.372Z,12.18
2022-11-26T18:33:01.952Z,11.68
2022-11-26T18:35:52.531Z,10.35
2022-11-26T18:38:44.926Z,11.88
2022-11-26T18:41:32.998Z,12.20
2022-11-26T18:44:20.897Z,10.75
2022-11-26T18:47:09.448Z,10.98
2022-11-26T18:49:57.732Z,12.00
2022-11-26T18:52:45.897Z,11.65
2022-11-26T18:55:40.529Z,17.40
2022-11-26T18:58:28.561Z,12.60
2022-11-26T19:01:24.659Z,12.55
2022-11-26T19:04:13.139Z,13.27
2022-11-26T19:07:00.963Z,12.60
2022-11-26T19:09:49.233Z,14.00
2022-11-26T19:12:48.915Z,12.50
2022-11-26T19:15:43.136Z,12.45
2022-11-26T19:21:34.477Z,15.43
2022-11-26T19:24:22.617Z,12.63
2022-11-26T19:27:13.843Z,15.05
2022-11-26T19:30:04.396Z,13.70
2022-11-26T19:32:54.517Z,15.05
2022-11-26T19:35:43.964Z,13.75
2022-11-26T19:38:35.938Z,17.83
2022-11-26T19:41:25.823Z,16.25
2022-11-26T19:44:16.404Z,14.90
2022-11-26T19:47:06.825Z,15.27
2022-11-26T19:49:54.901Z,18.50
2022-11-26T19:52:47.921Z,16.20
2022-11-26T19:58:27.156Z,15.98
2022-11-26T20:01:23.114Z,16.23
2022-11-26T20:04:17.487Z,23.63
2022-11-26T20:07:05.085Z,17.58
2022-11-26T20:09:53.407Z,18.17
2022-11-26T20:12:42.012Z,22.08
2022-11-26T20:15:43.512Z,16.88
2022-11-26T20:18:31.308Z,18.73
2022-11-26T20:21:22.397Z,19.95
2022-11-26T20:24:20.042Z,19.02
2022-11-26T20:27:10.687Z,18.13
2022-11-26T20:30:06.856Z,19.92
2022-11-26T20:32:56.327Z,21.20
2022-11-26T20:35:48.029Z,20.63
2022-11-26T20:38:38.801Z,18.45
2022-11-26T20:41:29.216Z,18.63
2022-11-26T20:44:29.195Z,22.63
2022-11-26T20:47:19.918Z,20.75
2022-11-26T20:50:12.269Z,19.35
2022-11-26T20:53:00.191Z,19.10
2022-11-26T20:55:58.864Z,20.08
2022-11-26T20:59:04.205Z,18.08
2022-11-26T21:01:58.226Z,16.30
2022-11-26T21:04:48.339Z,18.10
2022-11-26T21:07:36.422Z,17.65
2022-11-26T21:10:30.833Z,20.83
2022-11-26T21:13:37.902Z,17.63
2022-11-26T21:16:25.875Z,19.45
2022-11-26T21:19:15.046Z,19.77
2022-11-26T21:22:04.672Z,15.23
2022-11-26T21:24:55.739Z,17.92
2022-11-26T21:27:52.919Z,19.88
2022-11-26T21:30:44.937Z,18.55
2022-11-26T21:33:34.750Z,16.35
2022-11-26T21:36:25.945Z,20.10
2022-11-26T21:39:16.942Z,19.10
2022-11-26T21:42:13.699Z,16.23
2022-11-26T21:45:01.709Z,16.30
2022-11-26T21:47:55.435Z,18.02
2022-11-26T21:50:43.416Z,14.35
2022-11-26T21:53:31.793Z,15.55
2022-11-26T21:56:27.240Z,17.52
2022-11-26T21:59:15.503Z,17.88
2022-11-26T22:02:05.207Z,19.05
2022-11-26T22:04:54.469Z,16.00
2022-11-26T22:07:42.830Z,16.77
2022-11-26T22:10:35.937Z,16.23
2022-11-26T22:13:24.207Z,19.58
2022-11-26T22:16:13.632Z,17.58
2022-11-26T22:19:02.391Z,17.23
2022-11-26T22:21:53.350Z,18.40
2022-11-26T22:25:01.762Z,16.70
2022-11-26T22:27:49.828Z,19.92
2022-11-26T22:31:10.652Z,14.85
2022-11-26T22:34:02.599Z,15.00
2022-11-26T22:36:57.875Z,17.92
2022-11-26T22:39:52.450Z,17.15
2022-11-26T22:42:42.368Z,14.25
2022-11-26T22:46:10.720Z,15.15
2022-11-26T22:49:01.504Z,18.35
2022-11-26T22:51:56.907Z,15.63
2022-11-26T22:54:46.037Z,20.75
2022-11-26T23:01:20.323Z,17.37
2022-11-26T23:04:10.112Z,15.63
2022-11-26T23:06:58.253Z,15.02
2022-11-26T23:09:54.581Z,23.75
2022-11-26T23:16:15.073Z,14.02
2022-11-26T23:19:07.228Z,15.70
2022-11-26T23:21:55.020Z,15.55
2022-11-26T23:25:30.565Z,14.13
2022-11-26T23:29:05.519Z,15.40
2022-11-26T23:31:58.272Z,16.70
2022-11-26T23:34:48.198Z,13.52
2022-11-26T23:37:36.077Z,18.20
2022-11-26T23:40:41.774Z,15.73
2022-11-26T23:43:30.276Z,15.18
2022-11-26T23:46:34.241Z,16.27
2022-11-26T23:49:47.776Z,16.10
2022-11-26T23:52:40.364Z,14.48
2022-11-26T23:56:02.993Z,14.20
2022-11-26T23:58:51.686Z,17.52
